createdAt,value
2019-05-28T00:01:57.133Z,8.90
2019-05-28T00:07:02.215Z,12.37
2019-05-28T00:12:07.236Z,8.57
2019-05-28T00:17:12.216Z,10.63
2019-05-28T00:22:17.238Z,8.27
2019-05-28T00:27:22.199Z,8.67
2019-05-28T00:32:27.234Z,8.80
2019-05-28T00:37:32.278Z,12.20
2019-05-28T00:42:37.442Z,14.30
2019-05-28T00:47:42.605Z,12.77
2019-05-28T00:52:47.772Z,13.20
2019-05-28T00:57:53.358Z,14.80
2019-05-28T01:02:58.317Z,10.63
2019-05-28T01:08:03.334Z,13.97
2019-05-28T01:13:08.593Z,11.17
2019-05-28T01:18:13.546Z,11.27
2019-05-28T01:23:18.570Z,15.10
2019-05-28T01:28:23.698Z,18.47
2019-05-28T01:33:28.697Z,16.13
2019-05-28T01:38:33.677Z,11.50
2019-05-28T01:43:42.010Z,15.87
2019-05-28T01:48:46.930Z,14.20
2019-05-28T01:53:51.910Z,14.80
2019-05-28T01:58:56.897Z,14.47
2019-05-28T02:04:02.146Z,13.47
2019-05-28T02:09:07.741Z,17.27
2019-05-28T02:14:12.786Z,16.30
2019-05-28T02:19:17.810Z,17.33
2019-05-28T02:24:22.966Z,16.30
2019-05-28T02:29:27.946Z,17.60
2019-05-28T02:34:33.215Z,20.10
2019-05-28T02:39:38.262Z,16.87
2019-05-28T02:44:43.215Z,19.77
2019-05-28T02:49:48.198Z,20.63
2019-05-28T02:54:53.309Z,23.80
2019-05-28T03:00:01.471Z,23.57
2019-05-28T03:05:07.153Z,23.50
2019-05-28T03:10:13.463Z,19.03
2019-05-28T03:15:18.578Z,22.33
2019-05-28T03:20:34.851Z,23.63
2019-05-28T03:25:40.312Z,26.93
2019-05-28T03:30:46.411Z,29.23
2019-05-28T03:35:54.375Z,26.47
2019-05-28T03:40:59.466Z,28.20
2019-05-28T03:46:04.598Z,28.07
2019-05-28T03:51:09.595Z,23.97
2019-05-28T03:56:14.646Z,28.67
2019-05-28T04:01:19.613Z,27.83
2019-05-28T04:06:24.636Z,27.13
2019-05-28T04:11:43.973Z,26.90
2019-05-28T04:16:36.247Z,27.30
2019-05-28T04:21:41.212Z,27.40
2019-05-28T04:26:46.259Z,28.83
2019-05-28T04:31:51.234Z,28.50
2019-05-28T04:36:56.186Z,28.73
2019-05-28T04:42:01.239Z,28.37
2019-05-28T04:47:08.480Z,28.03
2019-05-28T04:52:12.815Z,27.67
2019-05-28T04:57:17.941Z,28.47
2019-05-28T05:02:22.958Z,28.37
2019-05-28T05:07:28.959Z,27.83
2019-05-28T05:12:34.983Z,29.43
2019-05-28T05:17:40.880Z,22.10
2019-05-28T05:22:49.413Z,28.67
2019-05-28T05:28:08.147Z,28.27
2019-05-28T05:33:25.608Z,28.50
2019-05-28T05:38:35.406Z,28.80
2019-05-28T05:43:40.509Z,29.97
2019-05-28T05:48:45.518Z,26.50
2019-05-28T05:53:50.471Z,27.80
2019-05-28T05:58:55.456Z,25.97
2019-05-28T06:04:00.438Z,17.77
2019-05-28T06:09:07.922Z,22.10
2019-05-28T06:14:12.910Z,22.83
2019-05-28T06:19:17.870Z,22.63
2019-05-28T06:24:22.890Z,21.10
2019-05-28T06:29:27.948Z,18.17
2019-05-28T06:34:32.995Z,18.10
2019-05-28T06:39:38.045Z,18.77
2019-05-28T06:44:43.060Z,20.20
2019-05-28T06:49:48.011Z,19.47
2019-05-28T06:54:53.121Z,17.60
2019-05-28T06:59:58.222Z,18.60
2019-05-28T07:05:06.279Z,17.87
2019-05-28T07:10:14.109Z,18.10
2019-05-28T07:15:19.277Z,17.47
2019-05-28T07:20:24.382Z,17.57
2019-05-28T07:25:30.340Z,15.93
2019-05-28T07:30:35.447Z,20.53
2019-05-28T07:35:45.797Z,18.97
2019-05-28T07:40:47.185Z,19.30
2019-05-28T07:45:52.139Z,18.23
2019-05-28T07:50:57.118Z,18.17
2019-05-28T07:56:03.166Z,17.17
2019-05-28T08:01:08.218Z,19.53
2019-05-28T08:06:14.225Z,18.83
2019-05-28T08:11:19.158Z,13.20
2019-05-28T08:16:24.455Z,11.53
2019-05-28T08:21:32.328Z,10.97
2019-05-28T08:26:36.194Z,12.30
2019-05-28T08:31:41.174Z,11.10
2019-05-28T08:37:01.791Z,12.63
2019-05-28T08:41:52.954Z,13.00
2019-05-28T08:46:57.944Z,15.90
2019-05-28T08:52:03.371Z,19.33
2019-05-28T08:57:08.440Z,16.43
2019-05-28T09:02:27.291Z,15.67
2019-05-28T09:07:20.102Z,14.07
2019-05-28T09:12:25.350Z,16.57
2019-05-28T09:17:30.307Z,17.87
2019-05-28T09:22:35.305Z,15.53
2019-05-28T09:27:40.410Z,16.73
2019-05-28T09:32:45.485Z,14.73
2019-05-28T09:37:50.492Z,13.40
2019-05-28T09:42:55.442Z,13.57
2019-05-28T09:48:00.539Z,15.80
2019-05-28T09:53:05.562Z,14.77
2019-05-28T09:58:10.538Z,14.67
2019-05-28T10:03:15.675Z,16.27
2019-05-28T10:08:20.987Z,14.63
2019-05-28T10:13:38.076Z,11.70
2019-05-28T10:18:32.660Z,9.10
2019-05-28T10:23:37.617Z,10.57
2019-05-28T10:28:45.902Z,9.07
2019-05-28T10:33:50.798Z,9.87
2019-05-28T10:38:55.915Z,10.80
2019-05-28T10:44:00.904Z,12.37
2019-05-28T10:49:06.093Z,11.00
2019-05-28T10:54:11.110Z,9.70
2019-05-28T10:59:16.125Z,11.87
2019-05-28T11:04:21.111Z,11.43
2019-05-28T11:09:26.168Z,11.43
2019-05-28T11:14:31.298Z,11.90
2019-05-28T11:19:36.326Z,11.60
2019-05-28T11:24:41.375Z,10.60
2019-05-28T11:29:46.326Z,12.27
2019-05-28T11:34:51.247Z,12.80
2019-05-28T11:39:56.223Z,13.60
2019-05-28T11:45:01.435Z,13.93
2019-05-28T11:50:10.543Z,9.50
2019-05-28T11:55:16.568Z,10.00
2019-05-28T12:00:21.983Z,8.83
2019-05-28T12:05:27.131Z,8.33
2019-05-28T12:10:32.231Z,11.90
2019-05-28T12:15:37.279Z,12.60
2019-05-28T12:20:42.305Z,12.93
2019-05-28T12:25:47.438Z,12.17
2019-05-28T12:30:52.606Z,11.27
2019-05-28T12:35:57.714Z,10.07
2019-05-28T12:41:27.279Z,9.03
2019-05-28T12:46:42.328Z,8.70
2019-05-28T12:51:50.368Z,7.40
2019-05-28T12:56:57.003Z,7.00
2019-05-28T13:02:08.926Z,5.80
2019-05-28T13:07:09.244Z,6.03
2019-05-28T13:12:14.261Z,6.13
2019-05-28T13:17:19.284Z,5.77
2019-05-28T13:22:24.220Z,5.77
2019-05-28T13:27:29.362Z,5.37
2019-05-28T13:32:34.308Z,6.23
2019-05-28T13:37:39.324Z,5.60
2019-05-28T13:42:48.459Z,5.23
2019-05-28T13:47:59.318Z,6.03
2019-05-28T13:53:04.590Z,5.37
2019-05-28T13:58:09.576Z,5.63
2019-05-28T14:03:14.687Z,6.13
2019-05-28T14:08:19.815Z,5.67
2019-05-28T14:13:24.798Z,5.43
2019-05-28T14:18:29.770Z,6.23
2019-05-28T14:23:34.810Z,6.07
2019-05-28T14:28:40.792Z,6.60
2019-05-28T14:33:45.764Z,5.83
2019-05-28T14:39:02.633Z,6.73
2019-05-28T14:43:57.377Z,5.50
2019-05-28T14:49:02.450Z,5.63
2019-05-28T14:54:07.474Z,5.33
2019-05-28T14:59:12.591Z,4.97
2019-05-28T15:04:17.449Z,4.60
2019-05-28T15:09:22.401Z,4.77
2019-05-28T15:14:27.463Z,8.43
2019-05-28T15:19:32.411Z,5.23
2019-05-28T15:24:37.450Z,6.00
2019-05-28T15:29:42.549Z,6.50
2019-05-28T15:34:47.454Z,5.77
2019-05-28T15:39:53.116Z,6.60
2019-05-28T15:44:58.106Z,6.77
2019-05-28T15:50:04.155Z,6.23
2019-05-28T15:55:10.832Z,6.53
2019-05-28T16:00:18.878Z,6.97
2019-05-28T16:05:23.815Z,5.77
2019-05-28T16:10:29.662Z,6.67
2019-05-28T16:15:34.671Z,6.13
2019-05-28T16:20:39.714Z,7.53
2019-05-28T16:25:44.710Z,7.20
2019-05-28T16:30:49.771Z,7.87
2019-05-28T16:35:54.743Z,6.33
2019-05-28T16:40:59.787Z,7.30
2019-05-28T16:46:04.999Z,7.90
2019-05-28T16:51:10.186Z,7.00
2019-05-28T16:56:15.165Z,8.27
2019-05-28T17:01:22.781Z,7.07
2019-05-28T17:06:26.839Z,5.73
2019-05-28T17:11:31.813Z,9.70
2019-05-28T17:16:36.932Z,14.90
2019-05-28T17:21:42.006Z,8.77
2019-05-28T17:26:47.131Z,7.40
2019-05-28T17:31:52.214Z,5.40
2019-05-28T17:36:57.320Z,6.33
2019-05-28T17:42:02.470Z,6.20
2019-05-28T17:47:08.499Z,6.50
2019-05-28T17:52:13.486Z,5.73
2019-05-28T17:57:18.516Z,5.27
2019-05-28T18:02:23.489Z,5.30
2019-05-28T18:07:28.443Z,4.80
2019-05-28T18:12:34.619Z,4.67
2019-05-28T18:17:39.268Z,5.20
2019-05-28T18:22:44.179Z,4.40
2019-05-28T18:27:49.268Z,3.57
2019-05-28T18:32:54.430Z,4.67
2019-05-28T18:38:06.596Z,4.50
2019-05-28T18:43:06.230Z,4.00
2019-05-28T18:48:11.170Z,3.73
2019-05-28T18:53:16.146Z,4.10
2019-05-28T18:58:21.367Z,3.83
2019-05-28T19:03:26.563Z,2.90
2019-05-28T19:08:31.527Z,3.70
2019-05-28T19:13:36.546Z,3.50
2019-05-28T19:18:41.478Z,3.50
2019-05-28T19:23:46.463Z,4.10
2019-05-28T19:28:51.510Z,3.77
2019-05-28T19:33:57.623Z,4.87
2019-05-28T19:39:05.600Z,4.50
2019-05-28T19:44:10.817Z,3.97
2019-05-28T19:49:15.864Z,4.63
2019-05-28T19:54:20.877Z,4.23
2019-05-28T19:59:25.503Z,5.30
2019-05-28T20:04:30.354Z,6.13
2019-05-28T20:09:35.414Z,6.20
2019-05-28T20:14:40.454Z,7.43
2019-05-28T20:19:45.398Z,6.47
2019-05-28T20:24:50.263Z,6.87
2019-05-28T20:29:55.297Z,6.83
2019-05-28T20:35:01.344Z,9.13
2019-05-28T20:40:08.193Z,7.67
2019-05-28T20:45:13.464Z,7.50
2019-05-28T20:50:18.685Z,8.60
2019-05-28T20:55:23.746Z,6.53
2019-05-28T21:00:28.882Z,7.27
2019-05-28T21:05:33.923Z,6.50
2019-05-28T21:10:38.959Z,6.40
2019-05-28T21:15:44.005Z,7.30
2019-05-28T21:20:49.419Z,6.53
2019-05-28T21:25:54.486Z,6.67
2019-05-28T21:31:00.877Z,8.33
2019-05-28T21:36:06.006Z,8.37
2019-05-28T21:41:15.380Z,7.80
2019-05-28T21:46:24.927Z,8.23
2019-05-28T21:51:29.955Z,8.90
2019-05-28T21:56:34.977Z,9.00
2019-05-28T22:01:40.911Z,7.67
2019-05-28T22:06:46.108Z,7.27
2019-05-28T22:11:51.202Z,8.53
2019-05-28T22:16:59.363Z,8.03
2019-05-28T22:22:20.427Z,6.70
2019-05-28T22:27:25.479Z,7.73
2019-05-28T22:32:30.439Z,5.17
2019-05-28T22:37:35.478Z,7.93
2019-05-28T22:42:40.449Z,7.53
2019-05-28T22:47:45.463Z,7.70
2019-05-28T22:52:50.342Z,7.27
2019-05-28T22:57:55.190Z,7.20
2019-05-28T23:03:00.882Z,6.60
2019-05-28T23:08:06.095Z,5.93
2019-05-28T23:13:11.270Z,6.17
2019-05-28T23:18:16.326Z,5.70
2019-05-28T23:23:21.370Z,6.67
2019-05-28T23:28:26.309Z,5.50
2019-05-28T23:33:31.272Z,4.30
2019-05-28T23:38:36.215Z,5.33
2019-05-28T23:43:41.190Z,4.93
2019-05-28T23:48:46.131Z,4.53
2019-05-28T23:53:51.095Z,3.63
2019-05-28T23:58:56.219Z,3.43
